createdAt,value
2023-01-09T00:01:59.482Z,11.30
2023-01-09T00:04:30.232Z,13.80
2023-01-09T00:07:00.935Z,11.50
2023-01-09T00:09:31.594Z,8.00
2023-01-09T00:12:03.140Z,10.20
2023-01-09T00:14:33.763Z,10.30
2023-01-09T00:17:04.511Z,12.20
2023-01-09T00:19:35.250Z,10.90
2023-01-09T00:22:06.495Z,12.30
2023-01-09T00:24:37.184Z,11.40
2023-01-09T00:27:07.928Z,13.30
2023-01-09T00:29:38.624Z,11.90
2023-01-09T00:32:10.452Z,12.30
2023-01-09T00:34:42.996Z,12.90
2023-01-09T00:37:13.665Z,12.50
2023-01-09T00:39:44.676Z,11.20
2023-01-09T00:42:20.110Z,13.30
2023-01-09T00:44:55.336Z,12.80
2023-01-09T00:47:29.949Z,11.70
2023-01-09T00:50:06.106Z,11.80
2023-01-09T00:52:39.084Z,12.40
2023-01-09T00:55:12.076Z,12.90
2023-01-09T00:57:43.086Z,13.10
2023-01-09T01:00:15.838Z,13.80
2023-01-09T01:05:33.462Z,11.50
2023-01-09T01:08:04.393Z,11.90
2023-01-09T01:10:37.019Z,12.00
2023-01-09T01:13:08.489Z,12.50
2023-01-09T01:15:41.291Z,11.90
2023-01-09T01:20:42.719Z,12.50
2023-01-09T01:23:13.917Z,16.20
2023-01-09T01:25:45.098Z,13.40
2023-01-09T01:28:16.229Z,13.50
2023-01-09T01:30:46.986Z,12.60
2023-01-09T01:33:17.721Z,14.10
2023-01-09T01:35:48.370Z,13.10
2023-01-09T01:38:19.031Z,10.80
2023-01-09T01:40:55.536Z,15.20
2023-01-09T01:43:26.823Z,13.90
2023-01-09T01:45:58.029Z,12.60
2023-01-09T01:48:31.347Z,14.40
2023-01-09T01:51:06.083Z,12.50
2023-01-09T01:53:41.267Z,11.90
2023-01-09T01:56:16.769Z,12.40
2023-01-09T01:58:51.219Z,13.20
2023-01-09T02:01:23.690Z,13.10
2023-01-09T02:03:57.642Z,12.10
2023-01-09T02:06:29.324Z,10.50
2023-01-09T02:09:00.340Z,12.50
2023-01-09T02:11:31.824Z,11.30
2023-01-09T02:14:03.471Z,11.70
2023-01-09T02:16:47.810Z,9.10
2023-01-09T02:19:43.574Z,12.30
2023-01-09T02:22:21.964Z,12.40
2023-01-09T02:25:20.751Z,10.80
2023-01-09T02:28:24.827Z,10.90
2023-01-09T02:31:03.283Z,12.10
2023-01-09T02:33:48.617Z,8.80
2023-01-09T02:36:30.059Z,11.00
2023-01-09T02:39:23.251Z,11.40
2023-01-09T02:41:59.542Z,12.30
2023-01-09T02:44:31.116Z,10.40
2023-01-09T02:47:07.978Z,10.90
2023-01-09T02:49:41.058Z,13.80
2023-01-09T02:52:29.238Z,11.20
2023-01-09T02:55:06.658Z,11.70
2023-01-09T02:57:49.612Z,10.70
2023-01-09T03:00:35.623Z,11.50
2023-01-09T03:03:12.720Z,11.00
2023-01-09T03:05:48.357Z,13.30
2023-01-09T03:08:23.945Z,12.30
2023-01-09T03:11:00.623Z,12.20
2023-01-09T03:13:34.276Z,11.90
2023-01-09T03:16:09.887Z,10.50
2023-01-09T03:18:43.074Z,11.50
2023-01-09T03:21:14.701Z,21.40
2023-01-09T03:23:54.747Z,11.00
2023-01-09T03:26:26.832Z,11.00
2023-01-09T03:28:58.441Z,10.90
2023-01-09T03:31:29.371Z,11.50
2023-01-09T03:34:00.127Z,13.10
2023-01-09T03:36:30.742Z,12.20
2023-01-09T03:39:01.672Z,11.70
2023-01-09T03:41:32.312Z,12.10
2023-01-09T03:44:03.129Z,13.80
2023-01-09T03:46:34.288Z,13.60
2023-01-09T03:49:04.917Z,13.00
2023-01-09T03:51:35.535Z,11.60
2023-01-09T03:54:06.420Z,12.50
2023-01-09T03:56:37.185Z,10.80
2023-01-09T03:59:07.816Z,13.60
2023-01-09T04:01:38.570Z,12.10
2023-01-09T04:04:09.459Z,11.70
2023-01-09T04:06:40.094Z,12.00
2023-01-09T04:09:10.882Z,12.70
2023-01-09T04:11:41.580Z,10.90
2023-01-09T04:14:12.244Z,13.30
2023-01-09T04:16:42.954Z,15.10
2023-01-09T04:19:13.694Z,10.00
2023-01-09T04:21:44.353Z,9.80
2023-01-09T04:24:15.080Z,12.60
2023-01-09T04:26:45.816Z,11.80
2023-01-09T04:29:16.645Z,9.30
2023-01-09T04:31:47.403Z,13.00
2023-01-09T04:34:18.237Z,12.20
2023-01-09T04:36:48.949Z,12.40
2023-01-09T04:39:20.032Z,13.30
2023-01-09T04:41:50.704Z,11.80
2023-01-09T04:44:23.085Z,11.10
2023-01-09T04:46:54.131Z,11.70
2023-01-09T04:49:25.217Z,14.70
2023-01-09T04:51:56.017Z,15.10
2023-01-09T04:54:27.759Z,14.00
2023-01-09T04:56:58.486Z,11.40
2023-01-09T04:59:29.352Z,11.70
2023-01-09T05:02:00.326Z,13.20
2023-01-09T05:04:31.154Z,13.10
2023-01-09T05:07:01.870Z,11.80
2023-01-09T05:09:32.639Z,14.00
2023-01-09T05:12:03.490Z,13.20
2023-01-09T05:14:34.247Z,12.20
2023-01-09T05:17:05.309Z,13.50
2023-01-09T05:19:36.084Z,13.60
2023-01-09T05:22:06.812Z,11.60
2023-01-09T05:24:37.504Z,13.60
2023-01-09T05:27:08.255Z,10.50
2023-01-09T05:29:39.004Z,12.20
2023-01-09T05:32:09.655Z,8.70
2023-01-09T05:34:40.395Z,10.90
2023-01-09T05:37:11.045Z,12.50
2023-01-09T05:39:41.801Z,11.90
2023-01-09T05:42:12.486Z,12.30
2023-01-09T05:44:43.223Z,8.20
2023-01-09T05:47:13.993Z,11.10
2023-01-09T05:49:44.600Z,9.30
2023-01-09T05:52:15.327Z,10.60
2023-01-09T05:54:46.060Z,9.30
2023-01-09T05:57:16.676Z,8.50
2023-01-09T05:59:47.339Z,10.20
2023-01-09T06:02:18.117Z,11.30
2023-01-09T06:04:48.874Z,11.70
2023-01-09T06:07:22.110Z,11.00
2023-01-09T06:09:54.121Z,11.30
2023-01-09T06:12:24.867Z,10.80
2023-01-09T06:14:55.525Z,11.50
2023-01-09T06:17:26.230Z,11.20
2023-01-09T06:19:56.882Z,11.00
2023-01-09T06:22:27.668Z,12.10
2023-01-09T06:24:58.438Z,11.10
2023-01-09T06:27:29.089Z,11.40
2023-01-09T06:29:59.776Z,13.40
2023-01-09T06:32:30.378Z,9.90
2023-01-09T06:35:01.042Z,13.00
2023-01-09T06:37:31.768Z,10.50
2023-01-09T06:40:02.465Z,10.30
2023-01-09T06:42:33.166Z,10.90
2023-01-09T06:45:03.811Z,10.00
2023-01-09T06:47:34.451Z,12.10
2023-01-09T06:50:05.440Z,9.40
2023-01-09T06:52:36.261Z,11.10
2023-01-09T06:55:09.210Z,9.50
2023-01-09T06:57:39.774Z,9.80
2023-01-09T07:00:13.294Z,10.10
2023-01-09T07:02:43.924Z,9.40
2023-01-09T07:05:14.830Z,9.70
2023-01-09T07:07:45.432Z,11.70
2023-01-09T07:10:16.988Z,10.50
2023-01-09T07:12:47.941Z,9.90
2023-01-09T07:15:18.982Z,11.70
2023-01-09T07:17:49.892Z,10.10
2023-01-09T07:20:21.291Z,10.50
2023-01-09T07:22:52.142Z,12.00
2023-01-09T07:25:23.113Z,10.50
2023-01-09T07:27:53.795Z,11.10
2023-01-09T07:30:24.670Z,13.20
2023-01-09T07:32:55.665Z,12.90
2023-01-09T07:35:26.531Z,11.40
2023-01-09T07:37:57.418Z,10.00
2023-01-09T07:40:28.136Z,12.90
2023-01-09T07:42:59.037Z,13.80
2023-01-09T07:45:29.921Z,11.40
2023-01-09T07:48:00.697Z,13.30
2023-01-09T07:50:31.524Z,13.70
2023-01-09T07:53:02.260Z,11.00
2023-01-09T07:55:32.921Z,11.70
2023-01-09T07:58:03.803Z,9.80
2023-01-09T08:00:34.515Z,10.40
2023-01-09T08:03:05.770Z,10.30
2023-01-09T08:05:36.667Z,10.70
2023-01-09T08:08:07.698Z,12.10
2023-01-09T08:10:38.393Z,13.20
2023-01-09T08:13:09.165Z,14.70
2023-01-09T08:15:39.837Z,10.20
2023-01-09T08:18:10.604Z,12.80
2023-01-09T08:20:41.245Z,12.50
2023-01-09T08:23:11.955Z,9.50
2023-01-09T08:25:42.902Z,11.60
2023-01-09T08:28:13.566Z,13.90
2023-01-09T08:30:44.363Z,9.70
2023-01-09T08:33:15.039Z,18.80
2023-01-09T08:35:47.232Z,13.20
2023-01-09T08:38:17.958Z,14.10
2023-01-09T08:40:51.097Z,12.30
2023-01-09T08:43:38.388Z,13.80
2023-01-09T08:46:34.627Z,11.60
2023-01-09T08:49:05.421Z,10.40
2023-01-09T08:51:36.039Z,13.50
2023-01-09T08:54:06.898Z,13.10
2023-01-09T08:56:37.687Z,14.50
2023-01-09T08:59:08.456Z,12.20
2023-01-09T09:01:39.389Z,11.60
2023-01-09T09:04:10.329Z,11.80
2023-01-09T09:06:41.147Z,9.60
2023-01-09T09:09:12.311Z,11.40
2023-01-09T09:11:43.145Z,11.50
2023-01-09T09:14:31.770Z,9.70
2023-01-09T09:17:03.097Z,10.30
2023-01-09T09:19:33.780Z,9.40
2023-01-09T09:22:04.671Z,9.40
2023-01-09T09:24:35.493Z,9.90
2023-01-09T09:27:06.558Z,10.20
2023-01-09T09:29:37.305Z,12.00
2023-01-09T09:32:08.339Z,10.30
2023-01-09T09:34:39.200Z,9.40
2023-01-09T09:37:10.344Z,8.30
2023-01-09T09:39:41.272Z,8.60
2023-01-09T09:42:52.765Z,6.60
2023-01-09T09:45:37.739Z,7.60
2023-01-09T09:51:07.612Z,4.50
2023-01-09T09:53:44.261Z,5.90
2023-01-09T09:56:19.626Z,4.60
2023-01-09T09:58:53.137Z,2.40
2023-01-09T10:01:28.633Z,1.70
2023-01-09T10:04:02.589Z,2.00
2023-01-09T10:06:36.714Z,3.20
2023-01-09T10:09:12.819Z,1.70
2023-01-09T10:11:48.672Z,2.30
2023-01-09T10:14:24.261Z,2.30
2023-01-09T10:17:13.268Z,2.10
2023-01-09T10:19:56.889Z,2.60
2023-01-09T10:22:37.968Z,1.60
2023-01-09T10:25:22.706Z,2.30
2023-01-09T10:28:10.169Z,5.10
2023-01-09T10:30:44.296Z,4.10
2023-01-09T10:33:30.955Z,2.00
2023-01-09T10:36:28.216Z,3.60
2023-01-09T10:39:04.301Z,3.50
2023-01-09T10:41:40.931Z,2.40
2023-01-09T10:44:29.651Z,3.70
2023-01-09T10:47:03.120Z,4.20
2023-01-09T10:49:33.858Z,5.80
2023-01-09T10:52:15.973Z,2.60
2023-01-09T10:54:54.779Z,2.30
2023-01-09T10:57:44.053Z,2.20
2023-01-09T11:00:24.086Z,2.70
2023-01-09T11:02:55.940Z,3.20
2023-01-09T11:05:29.187Z,2.00
2023-01-09T11:08:06.154Z,1.90
2023-01-09T11:10:51.795Z,1.40
2023-01-09T11:13:25.213Z,1.50
2023-01-09T11:16:07.096Z,3.20
2023-01-09T11:19:02.969Z,4.20
2023-01-09T11:21:38.203Z,2.50
2023-01-09T11:24:30.925Z,2.40
2023-01-09T11:27:24.529Z,2.10
2023-01-09T11:30:17.926Z,1.40
2023-01-09T11:32:49.613Z,2.10
2023-01-09T11:35:26.504Z,2.40
2023-01-09T11:38:16.732Z,1.50
2023-01-09T11:40:52.827Z,1.30
2023-01-09T11:43:30.779Z,0.50
2023-01-09T11:46:04.230Z,2.90
2023-01-09T11:48:54.121Z,1.80
2023-01-09T11:51:27.573Z,2.10
2023-01-09T11:54:16.208Z,0.80
2023-01-09T11:56:48.124Z,0.60
2023-01-09T11:59:22.136Z,1.60
2023-01-09T12:02:07.201Z,0.50
2023-01-09T12:04:46.472Z,1.20
2023-01-09T12:07:33.947Z,0.60
2023-01-09T12:10:19.775Z,1.00
2023-01-09T12:12:58.661Z,0.90
2023-01-09T12:15:36.982Z,1.30
2023-01-09T12:18:38.174Z,1.30
2023-01-09T12:21:33.670Z,1.70
2023-01-09T12:24:26.158Z,1.60
2023-01-09T12:27:09.538Z,1.60
2023-01-09T12:30:02.609Z,0.70
2023-01-09T12:32:44.621Z,2.40
2023-01-09T12:35:25.474Z,1.30
2023-01-09T12:38:14.026Z,1.30
2023-01-09T12:41:13.611Z,0.90
2023-01-09T12:43:55.507Z,1.10
2023-01-09T12:46:31.136Z,1.50
2023-01-09T12:49:24.021Z,1.90
2023-01-09T12:52:01.993Z,1.20
2023-01-09T12:54:39.333Z,1.40
2023-01-09T12:57:16.858Z,1.50
2023-01-09T12:59:53.575Z,0.90
2023-01-09T13:02:32.476Z,1.10
2023-01-09T13:05:09.016Z,1.90
2023-01-09T13:07:43.805Z,3.60
2023-01-09T13:10:24.830Z,2.20
2023-01-09T13:12:59.026Z,1.30
2023-01-09T13:15:33.993Z,0.70
2023-01-09T13:18:13.891Z,1.20
2023-01-09T13:20:49.149Z,1.00
2023-01-09T13:23:26.534Z,3.10
2023-01-09T13:25:59.660Z,1.10
2023-01-09T13:28:34.693Z,1.70
2023-01-09T13:31:29.577Z,1.30
2023-01-09T13:34:02.906Z,1.10
2023-01-09T13:36:38.287Z,1.30
2023-01-09T13:39:09.370Z,0.90
2023-01-09T13:42:10.448Z,3.50
2023-01-09T13:44:41.657Z,1.90
2023-01-09T13:47:21.247Z,0.90
2023-01-09T13:50:24.925Z,1.20
2023-01-09T13:52:55.874Z,1.60
2023-01-09T13:55:31.811Z,2.00
2023-01-09T13:58:25.194Z,1.90
2023-01-09T14:01:02.657Z,3.60
2023-01-09T14:03:38.326Z,0.70
2023-01-09T14:06:19.022Z,1.20
2023-01-09T14:08:51.995Z,1.00
2023-01-09T14:11:27.572Z,1.40
2023-01-09T14:14:07.455Z,0.90
2023-01-09T14:16:39.269Z,0.70
2023-01-09T14:19:26.881Z,0.50
2023-01-09T14:21:59.000Z,1.50
2023-01-09T14:24:34.546Z,1.40
2023-01-09T14:27:05.271Z,1.70
2023-01-09T14:29:47.577Z,0.60
2023-01-09T14:32:45.475Z,2.10
2023-01-09T14:35:29.256Z,1.90
2023-01-09T14:38:15.098Z,0.50
2023-01-09T14:40:52.555Z,0.70
2023-01-09T14:43:29.375Z,1.80
2023-01-09T14:46:05.751Z,1.10
2023-01-09T14:48:41.487Z,1.10
2023-01-09T14:51:17.991Z,0.50
2023-01-09T14:53:51.877Z,0.90
2023-01-09T14:56:31.297Z,1.80
2023-01-09T14:59:12.761Z,1.10
2023-01-09T15:01:46.781Z,1.80
2023-01-09T15:04:27.936Z,1.40
2023-01-09T15:06:59.102Z,3.00
2023-01-09T15:09:33.634Z,2.20
2023-01-09T15:12:09.589Z,2.70
2023-01-09T15:14:43.237Z,2.20
2023-01-09T15:17:23.171Z,2.00
2023-01-09T15:19:54.290Z,1.10
2023-01-09T15:22:30.402Z,2.30
2023-01-09T15:25:13.253Z,1.90
2023-01-09T15:27:51.537Z,2.40
2023-01-09T15:30:29.617Z,8.10
2023-01-09T15:33:00.691Z,4.90
2023-01-09T15:35:31.756Z,2.30
2023-01-09T15:38:02.779Z,2.60
2023-01-09T15:40:35.696Z,0.90
2023-01-09T15:43:06.786Z,1.90
2023-01-09T15:45:40.561Z,1.30
2023-01-09T15:48:26.992Z,0.90
2023-01-09T15:51:02.313Z,1.30
2023-01-09T15:53:33.540Z,1.60
2023-01-09T15:56:16.764Z,1.80
2023-01-09T15:58:48.559Z,1.20
2023-01-09T16:01:31.093Z,1.40
2023-01-09T16:04:09.469Z,1.00
2023-01-09T16:06:45.462Z,1.80
2023-01-09T16:09:21.580Z,3.10
2023-01-09T16:11:55.389Z,1.20
2023-01-09T16:14:30.520Z,0.70
2023-01-09T16:17:07.316Z,1.30
2023-01-09T16:19:48.472Z,3.00
2023-01-09T16:22:23.295Z,6.90
2023-01-09T16:24:55.663Z,1.40
2023-01-09T16:27:28.746Z,1.70
2023-01-09T16:30:00.625Z,1.20
2023-01-09T16:32:33.705Z,1.20
2023-01-09T16:35:06.518Z,1.10
2023-01-09T16:37:37.574Z,1.60
2023-01-09T16:40:29.893Z,3.50
2023-01-09T16:43:03.305Z,2.00
2023-01-09T16:45:36.301Z,6.20
2023-01-09T16:48:15.416Z,7.60
2023-01-09T16:50:47.311Z,4.30
2023-01-09T16:53:21.849Z,2.50
2023-01-09T16:55:53.938Z,4.90
2023-01-09T16:58:30.120Z,4.30
2023-01-09T17:01:01.073Z,4.20
2023-01-09T17:03:31.871Z,7.00
2023-01-09T17:06:05.121Z,7.10
2023-01-09T17:08:38.091Z,6.70
2023-01-09T17:11:11.902Z,5.10
2023-01-09T17:13:42.586Z,6.10
2023-01-09T17:16:14.839Z,4.60
2023-01-09T17:18:46.384Z,4.80
2023-01-09T17:21:21.094Z,5.20
2023-01-09T17:24:13.166Z,5.20
2023-01-09T17:27:04.195Z,5.00
2023-01-09T17:29:36.094Z,3.40
2023-01-09T17:32:07.276Z,5.60
2023-01-09T17:34:38.461Z,7.10
2023-01-09T17:37:10.010Z,5.10
2023-01-09T17:39:40.921Z,5.80
2023-01-09T17:42:11.877Z,7.30
2023-01-09T17:44:42.961Z,6.90
2023-01-09T17:47:16.674Z,6.10
2023-01-09T17:49:47.353Z,4.80
2023-01-09T17:52:18.097Z,3.40
2023-01-09T17:54:48.817Z,3.70
2023-01-09T17:57:19.667Z,2.30
2023-01-09T17:59:50.442Z,2.60
2023-01-09T18:02:21.589Z,3.40
2023-01-09T18:04:52.473Z,3.20
2023-01-09T18:07:23.239Z,4.50
2023-01-09T18:09:53.954Z,3.70
2023-01-09T18:12:24.674Z,2.90
2023-01-09T18:14:55.435Z,3.60
2023-01-09T18:17:26.578Z,5.60
2023-01-09T18:19:59.237Z,10.00
2023-01-09T18:22:30.371Z,12.50
2023-01-09T18:25:01.175Z,4.50
2023-01-09T18:27:32.219Z,3.60
2023-01-09T18:30:05.308Z,7.90
2023-01-09T18:32:36.512Z,5.40
2023-01-09T18:35:08.839Z,5.70
2023-01-09T18:37:39.789Z,3.70
2023-01-09T18:40:12.553Z,3.40
2023-01-09T18:42:45.328Z,4.50
2023-01-09T18:47:45.711Z,2.50
2023-01-09T18:50:16.594Z,7.00
2023-01-09T18:52:47.305Z,5.20
2023-01-09T18:55:18.216Z,3.90
2023-01-09T18:57:48.980Z,4.90
2023-01-09T19:00:21.261Z,4.40
2023-01-09T19:02:52.983Z,3.70
2023-01-09T19:05:26.279Z,5.10
2023-01-09T19:07:57.801Z,4.70
2023-01-09T19:10:29.291Z,4.20
2023-01-09T19:13:00.040Z,4.10
2023-01-09T19:15:30.884Z,5.20
2023-01-09T19:18:01.542Z,4.90
2023-01-09T19:20:32.397Z,3.00
2023-01-09T19:23:03.110Z,3.50
2023-01-09T19:25:33.735Z,2.50
2023-01-09T19:28:04.745Z,3.00
2023-01-09T19:30:36.744Z,2.00
2023-01-09T19:33:07.874Z,2.40
2023-01-09T19:35:38.870Z,3.90
2023-01-09T19:38:09.713Z,2.80
2023-01-09T19:40:40.524Z,1.90
2023-01-09T19:43:11.208Z,3.00
2023-01-09T19:45:42.426Z,4.30
2023-01-09T19:48:13.295Z,2.90
2023-01-09T19:50:43.981Z,3.10
2023-01-09T19:53:14.834Z,4.50
2023-01-09T19:55:46.068Z,2.70
2023-01-09T19:58:19.326Z,4.20
2023-01-09T20:00:50.169Z,4.50
2023-01-09T20:03:22.792Z,7.50
2023-01-09T20:05:55.368Z,6.90
2023-01-09T20:08:26.022Z,6.70
2023-01-09T20:10:57.124Z,5.00
2023-01-09T20:13:27.988Z,5.30
2023-01-09T20:16:03.687Z,6.70
2023-01-09T20:18:36.013Z,4.40
2023-01-09T20:21:07.623Z,3.80
2023-01-09T20:23:38.474Z,4.80
2023-01-09T20:26:10.714Z,3.80
2023-01-09T20:28:41.471Z,2.90
2023-01-09T20:31:16.157Z,3.50
2023-01-09T20:33:48.005Z,4.60
2023-01-09T20:36:21.571Z,3.10
2023-01-09T20:38:52.401Z,5.10
2023-01-09T20:41:23.901Z,5.10
2023-01-09T20:43:56.011Z,4.20
2023-01-09T20:46:28.823Z,3.60
2023-01-09T20:51:29.502Z,5.20
2023-01-09T20:54:00.422Z,5.50
2023-01-09T20:56:32.661Z,3.50
2023-01-09T20:59:04.260Z,4.60
2023-01-09T21:01:35.808Z,3.50
2023-01-09T21:04:08.883Z,4.80
2023-01-09T21:06:39.845Z,3.70
2023-01-09T21:09:11.022Z,3.80
2023-01-09T21:11:41.733Z,3.60
2023-01-09T21:14:12.689Z,5.00
2023-01-09T21:16:47.928Z,3.20
2023-01-09T21:19:24.890Z,4.30
2023-01-09T21:21:55.609Z,4.90
2023-01-09T21:24:26.308Z,2.70
2023-01-09T21:26:57.037Z,3.40
2023-01-09T21:29:27.799Z,3.60
2023-01-09T21:31:58.491Z,5.50
2023-01-09T21:34:29.361Z,3.60
2023-01-09T21:37:00.222Z,3.60
2023-01-09T21:39:31.282Z,4.10
2023-01-09T21:42:19.513Z,4.70
2023-01-09T21:45:10.401Z,3.70
2023-01-09T21:47:41.202Z,2.70
2023-01-09T21:50:13.477Z,2.60
2023-01-09T21:52:44.184Z,3.30
2023-01-09T21:55:14.902Z,2.00
2023-01-09T21:57:45.575Z,2.70
2023-01-09T22:00:18.478Z,3.00
2023-01-09T22:05:19.871Z,1.30
2023-01-09T22:07:51.242Z,1.40
2023-01-09T22:10:22.489Z,1.90
2023-01-09T22:13:13.115Z,1.70
2023-01-09T22:15:44.907Z,1.00
2023-01-09T22:18:15.648Z,2.10
2023-01-09T22:20:47.940Z,1.40
2023-01-09T22:23:19.526Z,2.00
2023-01-09T22:25:51.148Z,1.30
2023-01-09T22:28:22.435Z,1.10
2023-01-09T22:30:53.185Z,0.90
2023-01-09T22:33:25.227Z,1.40
2023-01-09T22:35:56.206Z,1.30
2023-01-09T22:38:26.833Z,1.20
2023-01-09T22:40:57.530Z,1.40
2023-01-09T22:43:28.782Z,1.80
2023-01-09T22:46:03.546Z,1.20
2023-01-09T22:48:34.752Z,1.70
2023-01-09T22:51:07.982Z,1.10
2023-01-09T22:53:42.344Z,1.30
2023-01-09T22:56:21.266Z,1.40
2023-01-09T22:58:55.421Z,1.40
2023-01-09T23:01:26.840Z,0.90
2023-01-09T23:03:57.701Z,1.10
2023-01-09T23:06:29.109Z,1.10
2023-01-09T23:09:02.335Z,1.20
2023-01-09T23:11:51.644Z,2.10
2023-01-09T23:14:23.652Z,1.50
2023-01-09T23:16:54.645Z,2.30
2023-01-09T23:19:25.740Z,0.80
2023-01-09T23:21:56.537Z,1.30
2023-01-09T23:24:28.038Z,1.80
2023-01-09T23:26:59.376Z,2.30
2023-01-09T23:29:30.389Z,1.40
2023-01-09T23:32:01.061Z,1.70
2023-01-09T23:34:33.675Z,1.30
2023-01-09T23:37:08.831Z,3.30
2023-01-09T23:39:39.866Z,1.00
2023-01-09T23:42:29.852Z,3.30
2023-01-09T23:45:00.675Z,3.20
2023-01-09T23:47:31.401Z,1.40
2023-01-09T23:50:03.825Z,2.10
2023-01-09T23:52:34.422Z,1.30
2023-01-09T23:55:05.693Z,1.30
2023-01-09T23:57:36.365Z,3.10
